createdAt,value
2019-05-14T00:00:41.111Z,4.60
2019-05-14T00:03:48.362Z,4.60
2019-05-14T00:06:55.899Z,4.60
2019-05-14T00:10:03.420Z,4.60
2019-05-14T00:13:12.073Z,4.60
2019-05-14T00:16:22.255Z,4.60
2019-05-14T00:19:29.119Z,4.50
2019-05-14T00:22:36.772Z,4.50
2019-05-14T00:25:44.253Z,4.50
2019-05-14T00:28:51.866Z,4.50
2019-05-14T00:32:01.739Z,4.50
2019-05-14T00:35:08.499Z,4.50
2019-05-14T00:38:15.963Z,4.50
2019-05-14T00:41:23.425Z,4.50
2019-05-14T00:44:32.312Z,4.50
2019-05-14T00:47:41.859Z,4.50
2019-05-14T00:50:51.604Z,4.50
2019-05-14T00:54:01.555Z,4.50
2019-05-14T00:57:08.623Z,4.50
2019-05-14T01:00:16.551Z,4.50
2019-05-14T01:03:24.145Z,4.50
2019-05-14T01:06:31.687Z,4.50
2019-05-14T01:09:41.830Z,4.50
2019-05-14T01:12:48.562Z,4.50
2019-05-14T01:15:56.013Z,4.50
2019-05-14T01:19:03.526Z,4.40
2019-05-14T01:22:12.503Z,4.50
2019-05-14T01:25:23.284Z,4.50
2019-05-14T01:28:29.285Z,4.50
2019-05-14T01:31:36.706Z,4.50
2019-05-14T01:34:44.297Z,4.50
2019-05-14T01:37:52.769Z,4.60
2019-05-14T01:41:01.801Z,4.50
2019-05-14T01:44:11.818Z,4.50
2019-05-14T01:47:18.573Z,4.60
2019-05-14T01:50:26.010Z,4.60
2019-05-14T01:53:33.443Z,4.60
2019-05-14T01:56:42.431Z,4.50
2019-05-14T01:59:51.667Z,4.50
2019-05-14T02:03:01.583Z,4.50
2019-05-14T02:06:08.838Z,4.50
2019-05-14T02:09:17.670Z,4.50
2019-05-14T02:12:25.883Z,4.50
2019-05-14T02:15:39.196Z,4.50
2019-05-14T02:18:43.165Z,4.50
2019-05-14T02:21:51.642Z,4.50
2019-05-14T02:24:59.076Z,4.50
2019-05-14T02:28:06.579Z,4.50
2019-05-14T02:31:14.116Z,4.50
2019-05-14T02:34:21.647Z,4.50
2019-05-14T02:37:30.136Z,4.50
2019-05-14T02:40:40.391Z,4.50
2019-05-14T02:43:49.938Z,4.50
2019-05-14T02:46:59.065Z,4.50
2019-05-14T02:50:05.335Z,4.50
2019-05-14T02:53:12.799Z,4.50
2019-05-14T02:56:20.646Z,4.60
2019-05-14T02:59:30.522Z,4.60
2019-05-14T03:02:40.452Z,4.60
2019-05-14T03:05:49.555Z,4.50
2019-05-14T03:08:56.133Z,4.60
2019-05-14T03:12:03.579Z,4.50
2019-05-14T03:15:11.562Z,4.60
2019-05-14T03:18:20.057Z,4.50
2019-05-14T03:21:30.293Z,4.60
2019-05-14T03:24:39.399Z,4.50
2019-05-14T03:27:49.403Z,4.60
2019-05-14T03:30:54.972Z,4.60
2019-05-14T03:34:03.636Z,4.60
2019-05-14T03:37:13.303Z,4.60
2019-05-14T03:40:20.651Z,4.60
2019-05-14T03:43:29.616Z,4.60
2019-05-14T03:46:46.064Z,4.70
2019-05-14T03:49:49.945Z,4.70
2019-05-14T03:52:59.368Z,4.70
2019-05-14T03:56:06.069Z,4.70
2019-05-14T03:59:13.749Z,4.80
2019-05-14T04:02:21.173Z,4.80
2019-05-14T04:05:29.446Z,4.70
2019-05-14T04:08:39.267Z,4.70
2019-05-14T04:11:50.128Z,4.70
2019-05-14T04:14:59.815Z,4.70
2019-05-14T04:18:09.119Z,4.80
2019-05-14T04:21:20.424Z,4.80
2019-05-14T04:24:31.138Z,4.80
2019-05-14T04:27:44.037Z,4.80
2019-05-14T04:30:54.271Z,4.80
2019-05-14T04:34:03.691Z,4.90
2019-05-14T04:37:12.998Z,5.00
2019-05-14T04:40:20.545Z,5.00
2019-05-14T04:43:29.354Z,5.00
2019-05-14T04:46:39.437Z,5.10
2019-05-14T04:49:50.213Z,5.10
2019-05-14T04:52:59.602Z,5.20
2019-05-14T04:56:05.458Z,5.30
2019-05-14T04:59:12.933Z,5.30
2019-05-14T05:02:20.456Z,5.40
2019-05-14T05:05:29.950Z,5.40
2019-05-14T05:08:39.513Z,5.50
2019-05-14T05:11:46.112Z,5.50
2019-05-14T05:14:53.534Z,5.60
2019-05-14T05:18:01.046Z,5.70
2019-05-14T05:21:08.826Z,5.70
2019-05-14T05:24:18.296Z,5.90
2019-05-14T05:27:25.335Z,5.90
2019-05-14T05:30:32.767Z,6.00
2019-05-14T05:33:40.538Z,6.20
2019-05-14T05:36:48.987Z,6.30
2019-05-14T05:39:58.336Z,6.40
2019-05-14T05:43:05.525Z,6.50
2019-05-14T05:46:12.979Z,6.50
2019-05-14T05:49:20.470Z,6.50
2019-05-14T05:52:28.390Z,6.60
2019-05-14T05:55:36.043Z,6.60
2019-05-14T05:58:43.876Z,6.70
2019-05-14T06:01:54.287Z,6.70
2019-05-14T06:05:01.110Z,6.70
2019-05-14T06:08:08.763Z,6.80
2019-05-14T06:11:19.112Z,6.80
2019-05-14T06:14:25.534Z,6.80
2019-05-14T06:17:33.180Z,6.80
2019-05-14T06:20:40.667Z,6.80
2019-05-14T06:23:48.956Z,6.80
2019-05-14T06:26:58.763Z,6.80
2019-05-14T06:30:09.225Z,6.70
2019-05-14T06:33:19.401Z,6.80
2019-05-14T06:36:25.882Z,6.90
2019-05-14T06:39:33.424Z,6.80
2019-05-14T06:42:40.907Z,6.80
2019-05-14T06:45:49.523Z,6.80
2019-05-14T06:48:58.996Z,6.80
2019-05-14T06:52:08.771Z,6.90
2019-05-14T06:55:17.902Z,6.90
2019-05-14T06:58:24.902Z,7.10
2019-05-14T07:01:32.378Z,7.20
2019-05-14T07:04:40.120Z,7.30
2019-05-14T07:07:49.557Z,7.40
2019-05-14T07:10:59.313Z,7.40
2019-05-14T07:14:10.728Z,7.30
2019-05-14T07:17:15.218Z,7.30
2019-05-14T07:20:22.774Z,7.20
2019-05-14T07:23:30.365Z,7.20
2019-05-14T07:26:38.744Z,7.20
2019-05-14T07:29:48.991Z,7.00
2019-05-14T07:32:55.638Z,6.80
2019-05-14T07:36:03.190Z,6.80
2019-05-14T07:39:10.688Z,6.80
2019-05-14T07:42:18.414Z,6.90
2019-05-14T07:45:26.014Z,6.90
2019-05-14T07:48:33.458Z,7.00
2019-05-14T07:51:40.958Z,7.10
2019-05-14T07:54:48.367Z,7.20
2019-05-14T07:57:55.972Z,7.20
2019-05-14T08:01:03.482Z,7.10
2019-05-14T08:04:11.798Z,7.10
2019-05-14T08:07:21.586Z,7.10
2019-05-14T08:10:29.128Z,7.30
2019-05-14T08:13:38.781Z,7.30
2019-05-14T08:16:45.845Z,7.30
2019-05-14T08:19:53.307Z,7.20
2019-05-14T08:23:00.773Z,7.20
2019-05-14T08:26:08.223Z,7.30
2019-05-14T08:29:18.093Z,7.10
2019-05-14T08:32:25.670Z,7.10
2019-05-14T08:35:35.115Z,7.20
2019-05-14T08:38:45.447Z,7.20
2019-05-14T08:41:59.602Z,6.90
2019-05-14T08:45:04.778Z,6.80
2019-05-14T08:48:10.597Z,6.70
2019-05-14T08:51:18.656Z,6.70
2019-05-14T08:54:28.433Z,6.70
2019-05-14T08:57:35.413Z,6.70
2019-05-14T09:00:42.938Z,6.80
2019-05-14T09:03:50.455Z,6.90
2019-05-14T09:06:58.441Z,7.00
2019-05-14T09:10:08.662Z,7.00
2019-05-14T09:13:18.211Z,7.00
2019-05-14T09:16:41.838Z,7.00
2019-05-14T09:19:34.034Z,7.20
2019-05-14T09:22:41.474Z,7.20
2019-05-14T09:25:53.063Z,7.30
2019-05-14T09:28:58.680Z,7.40
2019-05-14T09:32:06.278Z,7.50
2019-05-14T09:35:14.028Z,7.40
2019-05-14T09:38:21.472Z,7.30
2019-05-14T09:41:30.948Z,7.30
2019-05-14T09:44:38.693Z,7.40
2019-05-14T09:47:50.294Z,7.40
2019-05-14T09:50:55.796Z,7.40
2019-05-14T09:54:03.288Z,7.60
2019-05-14T09:57:10.856Z,7.70
2019-05-14T10:00:19.084Z,7.80
2019-05-14T10:03:26.720Z,7.80
2019-05-14T10:06:34.221Z,7.70
2019-05-14T10:09:41.748Z,7.70
2019-05-14T10:12:54.180Z,7.60
2019-05-14T10:15:59.111Z,7.50
2019-05-14T10:19:06.679Z,7.50
2019-05-14T10:22:14.596Z,7.40
2019-05-14T10:25:22.094Z,7.50
2019-05-14T10:28:29.488Z,7.40
2019-05-14T10:31:39.575Z,7.30
2019-05-14T10:34:48.342Z,7.20
2019-05-14T10:37:55.144Z,7.10
2019-05-14T10:41:02.773Z,7.20
2019-05-14T10:44:11.959Z,7.20
2019-05-14T10:47:19.368Z,7.20
2019-05-14T10:50:28.827Z,7.40
2019-05-14T10:53:35.904Z,7.50
2019-05-14T10:56:43.429Z,7.40
2019-05-14T10:59:50.932Z,7.50
2019-05-14T11:02:58.361Z,7.60
2019-05-14T11:06:05.782Z,7.60
2019-05-14T11:09:14.248Z,7.60
2019-05-14T11:12:21.665Z,7.60
2019-05-14T11:15:29.206Z,7.70
2019-05-14T11:18:39.581Z,7.70
2019-05-14T11:21:45.815Z,7.80
2019-05-14T11:24:54.993Z,7.80
2019-05-14T11:28:02.480Z,7.90
2019-05-14T11:31:09.926Z,8.10
2019-05-14T11:34:19.265Z,8.20
2019-05-14T11:37:28.109Z,7.90
2019-05-14T11:40:38.548Z,7.80
2019-05-14T11:43:45.027Z,7.70
2019-05-14T11:46:57.857Z,7.70
2019-05-14T11:50:01.657Z,7.60
2019-05-14T11:53:09.430Z,7.40
2019-05-14T11:56:19.188Z,7.50
2019-05-14T11:59:28.328Z,7.50
2019-05-14T12:02:35.184Z,7.60
2019-05-14T12:05:42.754Z,7.70
2019-05-14T12:08:50.178Z,7.70
2019-05-14T12:11:58.674Z,7.70
2019-05-14T12:15:08.846Z,7.70
2019-05-14T12:18:18.419Z,7.70
2019-05-14T12:21:25.730Z,7.70
2019-05-14T12:24:33.173Z,7.70
2019-05-14T12:27:40.612Z,7.60
2019-05-14T12:30:48.942Z,7.50
2019-05-14T12:33:58.384Z,7.30
2019-05-14T12:37:06.011Z,7.30
2019-05-14T12:40:13.712Z,7.20
2019-05-14T12:43:21.235Z,7.20
2019-05-14T12:46:29.405Z,7.20
2019-05-14T12:49:38.717Z,7.20
2019-05-14T12:52:48.259Z,7.20
2019-05-14T12:55:55.291Z,7.30
2019-05-14T12:59:02.760Z,7.20
2019-05-14T13:02:10.314Z,7.40
2019-05-14T13:05:18.537Z,7.50
2019-05-14T13:08:26.378Z,7.50
2019-05-14T13:11:33.921Z,7.60
2019-05-14T13:14:41.480Z,7.70
2019-05-14T13:17:49.124Z,7.90
2019-05-14T13:20:56.617Z,7.90
2019-05-14T13:24:05.126Z,7.90
2019-05-14T13:27:12.668Z,7.90
2019-05-14T13:30:20.640Z,7.80
2019-05-14T13:33:28.532Z,7.90
2019-05-14T13:36:36.138Z,7.80
2019-05-14T13:39:43.782Z,7.70
2019-05-14T13:42:51.356Z,7.70
2019-05-14T13:45:59.106Z,7.60
2019-05-14T13:49:06.884Z,7.60
2019-05-14T13:52:14.375Z,7.50
2019-05-14T13:55:22.001Z,7.60
2019-05-14T13:58:29.517Z,7.60
2019-05-14T14:01:37.019Z,7.60
2019-05-14T14:04:44.629Z,7.70
2019-05-14T14:07:52.150Z,7.70
2019-05-14T14:11:02.833Z,7.80
2019-05-14T14:14:09.079Z,7.70
2019-05-14T14:17:18.491Z,7.70
2019-05-14T14:20:25.784Z,7.70
2019-05-14T14:23:33.225Z,7.60
2019-05-14T14:26:40.743Z,7.70
2019-05-14T14:29:49.283Z,7.70
2019-05-14T14:32:58.743Z,7.60
2019-05-14T14:36:06.328Z,7.50
2019-05-14T14:39:13.827Z,7.40
2019-05-14T14:42:21.330Z,7.50
2019-05-14T14:45:29.455Z,7.70
2019-05-14T14:48:39.593Z,7.80
2019-05-14T14:51:46.185Z,7.70
2019-05-14T14:54:53.649Z,7.80
2019-05-14T14:58:01.222Z,7.70
2019-05-14T15:01:09.056Z,7.70
2019-05-14T15:04:19.474Z,7.70
2019-05-14T15:07:29.435Z,7.80
2019-05-14T15:10:35.423Z,7.80
2019-05-14T15:13:43.082Z,7.70
2019-05-14T15:16:50.769Z,7.70
2019-05-14T15:19:59.462Z,7.70
2019-05-14T15:23:09.863Z,7.60
2019-05-14T15:26:19.230Z,7.60
2019-05-14T15:29:28.318Z,7.50
2019-05-14T15:32:35.287Z,7.50
2019-05-14T15:35:44.405Z,7.50
2019-05-14T15:38:52.871Z,7.50
2019-05-14T15:42:05.603Z,7.40
2019-05-14T15:45:10.204Z,7.40
2019-05-14T15:48:19.939Z,7.30
2019-05-14T15:51:28.589Z,7.30
2019-05-14T15:54:46.417Z,7.30
2019-05-14T15:57:45.530Z,7.30
2019-05-14T16:00:53.204Z,7.30
2019-05-14T16:04:00.841Z,7.20
2019-05-14T16:07:09.484Z,7.10
2019-05-14T16:10:21.674Z,7.10
2019-05-14T16:13:28.658Z,7.10
2019-05-14T16:16:39.011Z,7.10
2019-05-14T16:19:45.399Z,7.10
2019-05-14T16:22:52.981Z,7.10
2019-05-14T16:26:00.492Z,7.10
2019-05-14T16:29:08.960Z,7.10
2019-05-14T16:32:16.918Z,7.10
2019-05-14T16:35:24.411Z,7.10
2019-05-14T16:38:32.045Z,7.00
2019-05-14T16:41:40.163Z,7.00
2019-05-14T16:44:48.065Z,7.00
2019-05-14T16:47:55.556Z,7.00
2019-05-14T16:51:03.028Z,7.00
2019-05-14T16:54:10.541Z,7.00
2019-05-14T16:57:18.544Z,7.10
2019-05-14T17:00:26.269Z,7.10
2019-05-14T17:03:33.728Z,7.10
2019-05-14T17:06:41.294Z,7.10
2019-05-14T17:09:49.275Z,7.00
2019-05-14T17:13:00.597Z,7.00
2019-05-14T17:16:08.327Z,7.00
2019-05-14T17:19:15.501Z,6.90
2019-05-14T17:22:28.962Z,6.90
2019-05-14T17:25:32.359Z,6.80
2019-05-14T17:28:40.931Z,6.90
2019-05-14T17:31:49.469Z,6.90
2019-05-14T17:34:57.077Z,6.80
2019-05-14T17:38:05.564Z,6.70
2019-05-14T17:41:12.993Z,6.80
2019-05-14T17:44:20.513Z,6.80
2019-05-14T17:47:29.092Z,6.80
2019-05-14T17:50:38.390Z,6.80
2019-05-14T17:53:48.132Z,6.70
2019-05-14T17:56:55.375Z,6.70
2019-05-14T18:00:03.073Z,6.60
2019-05-14T18:03:10.901Z,6.70
2019-05-14T18:06:19.021Z,6.70
2019-05-14T18:09:29.086Z,6.60
2019-05-14T18:12:35.785Z,6.60
2019-05-14T18:15:44.055Z,6.60
2019-05-14T18:18:51.710Z,6.50
2019-05-14T18:21:59.482Z,6.50
2019-05-14T18:25:07.559Z,6.50
2019-05-14T18:28:15.133Z,6.50
2019-05-14T18:31:22.723Z,6.50
2019-05-14T18:34:30.305Z,6.50
2019-05-14T18:37:39.020Z,6.50
2019-05-14T18:40:46.579Z,6.40
2019-05-14T18:43:54.140Z,6.40
2019-05-14T18:47:01.603Z,6.40
2019-05-14T18:50:09.872Z,6.40
2019-05-14T18:53:19.070Z,6.40
2019-05-14T18:56:29.123Z,6.40
2019-05-14T18:59:38.925Z,6.40
2019-05-14T19:02:45.489Z,6.40
2019-05-14T19:05:52.958Z,6.40
2019-05-14T19:09:00.374Z,6.40
2019-05-14T19:12:08.366Z,6.40
2019-05-14T19:15:18.393Z,6.40
2019-05-14T19:18:25.295Z,6.40
2019-05-14T19:21:34.067Z,6.40
2019-05-14T19:24:41.493Z,6.40
2019-05-14T19:27:48.917Z,6.30
2019-05-14T19:30:56.576Z,6.30
2019-05-14T19:34:04.156Z,6.30
2019-05-14T19:37:11.830Z,6.30
2019-05-14T19:40:19.518Z,6.30
2019-05-14T19:43:29.084Z,6.30
2019-05-14T19:46:38.642Z,6.30
2019-05-14T19:49:48.476Z,6.30
2019-05-14T19:52:55.461Z,6.30
2019-05-14T19:56:02.929Z,6.20
2019-05-14T19:59:10.745Z,6.30
2019-05-14T20:02:18.519Z,6.30
2019-05-14T20:05:28.459Z,6.30
2019-05-14T20:08:35.323Z,6.20
2019-05-14T20:11:42.786Z,6.20
2019-05-14T20:14:50.329Z,6.20
2019-05-14T20:17:58.269Z,6.20
2019-05-14T20:21:05.877Z,6.20
2019-05-14T20:24:13.415Z,6.20
2019-05-14T20:27:21.101Z,6.20
2019-05-14T20:30:29.491Z,6.20
2019-05-14T20:33:37.120Z,6.20
2019-05-14T20:36:44.583Z,6.20
2019-05-14T20:39:52.161Z,6.20
2019-05-14T20:42:59.769Z,6.20
2019-05-14T20:46:07.376Z,6.20
2019-05-14T20:49:14.898Z,6.10
2019-05-14T20:52:22.447Z,6.10
2019-05-14T20:55:29.869Z,6.10
2019-05-14T20:58:38.824Z,6.10
2019-05-14T21:01:47.639Z,6.10
2019-05-14T21:04:55.763Z,6.10
2019-05-14T21:08:04.374Z,6.10
2019-05-14T21:11:11.853Z,6.10
2019-05-14T21:14:19.361Z,6.10
2019-05-14T21:17:28.253Z,6.00
2019-05-14T21:20:35.775Z,6.00
2019-05-14T21:23:43.269Z,6.00
2019-05-14T21:26:50.889Z,6.00
2019-05-14T21:29:58.448Z,6.00
2019-05-14T21:33:08.202Z,6.00
2019-05-14T21:36:15.126Z,6.00
2019-05-14T21:39:22.749Z,6.00
2019-05-14T21:42:30.197Z,6.00
2019-05-14T21:45:38.325Z,6.00
2019-05-14T21:48:47.823Z,6.00
2019-05-14T21:51:55.397Z,5.90
2019-05-14T21:55:02.878Z,6.00
2019-05-14T21:58:11.898Z,6.00
2019-05-14T22:01:19.992Z,6.00
2019-05-14T22:04:28.942Z,5.90
2019-05-14T22:07:38.812Z,5.90
2019-05-14T22:10:48.705Z,5.90
2019-05-14T22:13:55.405Z,5.90
2019-05-14T22:17:02.829Z,5.90
2019-05-14T22:20:10.992Z,6.00
2019-05-14T22:23:21.145Z,6.00
2019-05-14T22:26:28.221Z,5.90
2019-05-14T22:29:35.772Z,5.90
2019-05-14T22:32:43.207Z,6.00
2019-05-14T22:35:50.850Z,6.00
2019-05-14T22:38:58.363Z,6.00
2019-05-14T22:42:05.801Z,6.00
2019-05-14T22:45:13.409Z,6.00
2019-05-14T22:48:20.917Z,6.00
2019-05-14T22:51:29.032Z,6.00
2019-05-14T22:54:38.475Z,6.00
2019-05-14T22:57:47.961Z,6.00
2019-05-14T23:01:12.796Z,6.00
2019-05-14T23:04:03.869Z,6.00
2019-05-14T23:07:11.334Z,6.00
2019-05-14T23:10:18.853Z,6.00
2019-05-14T23:13:28.078Z,6.00
2019-05-14T23:16:39.276Z,6.00
2019-05-14T23:19:45.053Z,6.00
2019-05-14T23:22:52.605Z,6.00
2019-05-14T23:26:01.320Z,6.00
2019-05-14T23:29:08.811Z,6.00
2019-05-14T23:32:18.925Z,6.00
2019-05-14T23:35:25.511Z,6.00
2019-05-14T23:38:33.127Z,6.00
2019-05-14T23:41:40.523Z,6.00
2019-05-14T23:44:49.236Z,6.00
2019-05-14T23:47:58.620Z,6.00
2019-05-14T23:51:07.943Z,6.00
2019-05-14T23:54:15.015Z,6.00
2019-05-14T23:57:22.418Z,6.00
